sensor_id;sensor_type;location;lat;lon;timestamp;P1;durP1;ratioP1;P2;durP2;ratioP2
16870;SDS011;8552;48.120;-1.456;2024-02-14T00:00:34;8.98;;;4.13;;
16870;SDS011;8552;48.120;-1.456;2024-02-14T00:03:00;7.88;;;4.72;;
16870;SDS011;8552;48.120;-1.456;2024-02-14T00:05:28;6.93;;;4.57;;
16870;SDS011;8552;48.120;-1.456;2024-02-14T00:07:54;7.60;;;4.15;;
16870;SDS011;8552;48.120;-1.456;2024-02-14T00:10:21;6.53;;;5.07;;
16870;SDS011;8552;48.120;-1.456;2024-02-14T00:12:49;9.32;;;4.07;;
16870;SDS011;8552;48.120;-1.456;2024-02-14T00:15:16;7.80;;;4.60;;
16870;SDS011;8552;48.120;-1.456;2024-02-14T00:17:43;10.23;;;4.35;;
16870;SDS011;8552;48.120;-1.456;2024-02-14T00:20:09;6.20;;;3.83;;
16870;SDS011;8552;48.120;-1.456;2024-02-14T00:22:38;5.65;;;4.75;;
16870;SDS011;8552;48.120;-1.456;2024-02-14T00:25:04;4.78;;;3.88;;
16870;SDS011;8552;48.120;-1.456;2024-02-14T00:27:31;4.82;;;3.35;;
16870;SDS011;8552;48.120;-1.456;2024-02-14T00:29:57;6.05;;;3.60;;
16870;SDS011;8552;48.120;-1.456;2024-02-14T00:32:23;10.20;;;4.53;;
16870;SDS011;8552;48.120;-1.456;2024-02-14T00:34:49;8.05;;;4.30;;
16870;SDS011;8552;48.120;-1.456;2024-02-14T00:37:15;8.70;;;3.83;;
16870;SDS011;8552;48.120;-1.456;2024-02-14T00:39:41;8.65;;;4.38;;
16870;SDS011;8552;48.120;-1.456;2024-02-14T00:42:07;6.85;;;3.97;;
16870;SDS011;8552;48.120;-1.456;2024-02-14T00:44:33;7.85;;;4.20;;
16870;SDS011;8552;48.120;-1.456;2024-02-14T00:46:59;7.25;;;3.80;;
16870;SDS011;8552;48.120;-1.456;2024-02-14T00:49:26;7.22;;;3.83;;
16870;SDS011;8552;48.120;-1.456;2024-02-14T00:51:52;7.53;;;3.78;;
16870;SDS011;8552;48.120;-1.456;2024-02-14T00:54:18;11.63;;;3.70;;
16870;SDS011;8552;48.120;-1.456;2024-02-14T00:56:44;4.38;;;3.15;;
16870;SDS011;8552;48.120;-1.456;2024-02-14T00:59:10;4.25;;;3.03;;
16870;SDS011;8552;48.120;-1.456;2024-02-14T01:01:36;8.52;;;4.43;;
16870;SDS011;8552;48.120;-1.456;2024-02-14T01:04:02;4.28;;;3.35;;
16870;SDS011;8552;48.120;-1.456;2024-02-14T01:06:29;12.73;;;3.10;;
16870;SDS011;8552;48.120;-1.456;2024-02-14T01:08:56;9.68;;;3.90;;
16870;SDS011;8552;48.120;-1.456;2024-02-14T01:11:22;9.50;;;2.90;;
16870;SDS011;8552;48.120;-1.456;2024-02-14T01:13:48;6.60;;;2.95;;
16870;SDS011;8552;48.120;-1.456;2024-02-14T01:16:14;12.45;;;4.00;;
16870;SDS011;8552;48.120;-1.456;2024-02-14T01:18:40;9.95;;;3.97;;
16870;SDS011;8552;48.120;-1.456;2024-02-14T01:21:06;10.90;;;4.43;;
16870;SDS011;8552;48.120;-1.456;2024-02-14T01:23:32;10.52;;;4.18;;
16870;SDS011;8552;48.120;-1.456;2024-02-14T01:25:58;16.55;;;4.05;;
16870;SDS011;8552;48.120;-1.456;2024-02-14T01:28:24;17.63;;;4.47;;
16870;SDS011;8552;48.120;-1.456;2024-02-14T01:30:50;12.45;;;4.00;;
16870;SDS011;8552;48.120;-1.456;2024-02-14T01:33:16;10.02;;;3.70;;
16870;SDS011;8552;48.120;-1.456;2024-02-14T01:35:42;10.27;;;3.90;;
16870;SDS011;8552;48.120;-1.456;2024-02-14T01:38:09;17.52;;;5.38;;
16870;SDS011;8552;48.120;-1.456;2024-02-14T01:40:37;11.18;;;4.53;;
16870;SDS011;8552;48.120;-1.456;2024-02-14T01:43:03;12.10;;;4.35;;
16870;SDS011;8552;48.120;-1.456;2024-02-14T01:45:29;10.90;;;4.93;;
16870;SDS011;8552;48.120;-1.456;2024-02-14T01:47:55;13.73;;;5.13;;
16870;SDS011;8552;48.120;-1.456;2024-02-14T01:50:21;8.38;;;4.15;;
16870;SDS011;8552;48.120;-1.456;2024-02-14T01:52:54;13.02;;;5.07;;
16870;SDS011;8552;48.120;-1.456;2024-02-14T01:55:22;13.98;;;6.05;;
16870;SDS011;8552;48.120;-1.456;2024-02-14T01:57:48;11.27;;;4.95;;
16870;SDS011;8552;48.120;-1.456;2024-02-14T02:00:14;12.25;;;4.97;;
16870;SDS011;8552;48.120;-1.456;2024-02-14T02:02:43;12.23;;;4.95;;
16870;SDS011;8552;48.120;-1.456;2024-02-14T02:05:09;13.70;;;5.05;;
16870;SDS011;8552;48.120;-1.456;2024-02-14T02:07:35;12.57;;;5.18;;
16870;SDS011;8552;48.120;-1.456;2024-02-14T02:10:04;13.10;;;5.38;;
16870;SDS011;8552;48.120;-1.456;2024-02-14T02:12:31;14.65;;;5.40;;
16870;SDS011;8552;48.120;-1.456;2024-02-14T02:14:57;15.80;;;4.55;;
16870;SDS011;8552;48.120;-1.456;2024-02-14T02:17:23;13.23;;;5.32;;
16870;SDS011;8552;48.120;-1.456;2024-02-14T02:19:53;13.38;;;5.13;;
16870;SDS011;8552;48.120;-1.456;2024-02-14T02:22:19;13.13;;;4.72;;
16870;SDS011;8552;48.120;-1.456;2024-02-14T02:24:45;12.82;;;4.57;;
16870;SDS011;8552;48.120;-1.456;2024-02-14T02:27:12;14.82;;;4.50;;
16870;SDS011;8552;48.120;-1.456;2024-02-14T02:29:41;12.65;;;4.95;;
16870;SDS011;8552;48.120;-1.456;2024-02-14T02:32:07;16.90;;;5.55;;
16870;SDS011;8552;48.120;-1.456;2024-02-14T02:34:35;17.15;;;5.40;;
16870;SDS011;8552;48.120;-1.456;2024-02-14T02:37:04;15.05;;;5.65;;
16870;SDS011;8552;48.120;-1.456;2024-02-14T02:39:34;23.60;;;5.55;;
16870;SDS011;8552;48.120;-1.456;2024-02-14T02:42:03;17.60;;;6.25;;
16870;SDS011;8552;48.120;-1.456;2024-02-14T02:44:30;19.23;;;5.63;;
16870;SDS011;8552;48.120;-1.456;2024-02-14T02:46:56;22.85;;;5.30;;
16870;SDS011;8552;48.120;-1.456;2024-02-14T02:49:22;23.98;;;6.43;;
16870;SDS011;8552;48.120;-1.456;2024-02-14T02:51:48;22.30;;;7.03;;
16870;SDS011;8552;48.120;-1.456;2024-02-14T02:54:14;19.58;;;5.82;;
16870;SDS011;8552;48.120;-1.456;2024-02-14T02:56:40;17.88;;;5.95;;
16870;SDS011;8552;48.120;-1.456;2024-02-14T02:59:07;28.10;;;6.20;;
16870;SDS011;8552;48.120;-1.456;2024-02-14T03:01:36;27.20;;;6.97;;
16870;SDS011;8552;48.120;-1.456;2024-02-14T03:04:02;21.33;;;5.72;;
16870;SDS011;8552;48.120;-1.456;2024-02-14T03:06:29;22.70;;;6.35;;
16870;SDS011;8552;48.120;-1.456;2024-02-14T03:08:55;19.35;;;5.82;;
16870;SDS011;8552;48.120;-1.456;2024-02-14T03:11:22;19.20;;;5.43;;
16870;SDS011;8552;48.120;-1.456;2024-02-14T03:13:50;17.55;;;5.38;;
16870;SDS011;8552;48.120;-1.456;2024-02-14T03:16:16;29.70;;;6.72;;
16870;SDS011;8552;48.120;-1.456;2024-02-14T03:18:42;26.33;;;6.93;;
16870;SDS011;8552;48.120;-1.456;2024-02-14T03:21:08;28.27;;;6.18;;
16870;SDS011;8552;48.120;-1.456;2024-02-14T03:23:36;16.52;;;5.03;;
16870;SDS011;8552;48.120;-1.456;2024-02-14T03:26:04;15.25;;;5.43;;
16870;SDS011;8552;48.120;-1.456;2024-02-14T03:28:32;19.50;;;4.93;;
16870;SDS011;8552;48.120;-1.456;2024-02-14T03:30:58;20.05;;;5.50;;
16870;SDS011;8552;48.120;-1.456;2024-02-14T03:33:24;12.88;;;5.30;;
16870;SDS011;8552;48.120;-1.456;2024-02-14T03:35:51;21.35;;;5.50;;
16870;SDS011;8552;48.120;-1.456;2024-02-14T03:38:26;21.52;;;5.80;;
16870;SDS011;8552;48.120;-1.456;2024-02-14T03:40:52;15.48;;;4.90;;
16870;SDS011;8552;48.120;-1.456;2024-02-14T03:43:19;17.92;;;5.72;;
16870;SDS011;8552;48.120;-1.456;2024-02-14T03:45:46;26.85;;;6.78;;
16870;SDS011;8552;48.120;-1.456;2024-02-14T03:48:12;21.17;;;4.82;;
16870;SDS011;8552;48.120;-1.456;2024-02-14T03:50:39;20.58;;;6.18;;
16870;SDS011;8552;48.120;-1.456;2024-02-14T03:53:05;24.00;;;6.53;;
16870;SDS011;8552;48.120;-1.456;2024-02-14T03:55:31;18.75;;;6.22;;
16870;SDS011;8552;48.120;-1.456;2024-02-14T03:57:57;23.17;;;6.20;;
16870;SDS011;8552;48.120;-1.456;2024-02-14T04:00:23;18.10;;;5.70;;
16870;SDS011;8552;48.120;-1.456;2024-02-14T04:02:49;22.58;;;5.63;;
16870;SDS011;8552;48.120;-1.456;2024-02-14T04:05:18;20.58;;;4.50;;
16870;SDS011;8552;48.120;-1.456;2024-02-14T04:07:44;18.25;;;5.20;;
16870;SDS011;8552;48.120;-1.456;2024-02-14T04:10:15;24.63;;;4.88;;
16870;SDS011;8552;48.120;-1.456;2024-02-14T04:12:41;23.20;;;5.05;;
16870;SDS011;8552;48.120;-1.456;2024-02-14T04:15:07;18.95;;;5.05;;
16870;SDS011;8552;48.120;-1.456;2024-02-14T04:17:34;19.10;;;4.70;;
16870;SDS011;8552;48.120;-1.456;2024-02-14T04:20:00;20.05;;;4.97;;
16870;SDS011;8552;48.120;-1.456;2024-02-14T04:22:26;22.00;;;5.43;;
16870;SDS011;8552;48.120;-1.456;2024-02-14T04:24:52;21.08;;;5.22;;
16870;SDS011;8552;48.120;-1.456;2024-02-14T04:27:18;19.23;;;5.15;;
16870;SDS011;8552;48.120;-1.456;2024-02-14T04:29:47;23.77;;;6.05;;
16870;SDS011;8552;48.120;-1.456;2024-02-14T04:32:13;21.55;;;5.60;;
16870;SDS011;8552;48.120;-1.456;2024-02-14T04:34:39;15.77;;;5.43;;
16870;SDS011;8552;48.120;-1.456;2024-02-14T04:37:06;12.98;;;5.43;;
16870;SDS011;8552;48.120;-1.456;2024-02-14T04:39:35;19.15;;;5.07;;
16870;SDS011;8552;48.120;-1.456;2024-02-14T04:42:01;11.43;;;4.55;;
16870;SDS011;8552;48.120;-1.456;2024-02-14T04:44:28;13.52;;;5.18;;
16870;SDS011;8552;48.120;-1.456;2024-02-14T04:46:54;17.85;;;4.88;;
16870;SDS011;8552;48.120;-1.456;2024-02-14T04:49:21;12.48;;;4.07;;
16870;SDS011;8552;48.120;-1.456;2024-02-14T04:51:51;14.35;;;5.25;;
16870;SDS011;8552;48.120;-1.456;2024-02-14T04:54:17;9.35;;;4.93;;
16870;SDS011;8552;48.120;-1.456;2024-02-14T04:56:43;24.00;;;6.32;;
16870;SDS011;8552;48.120;-1.456;2024-02-14T04:59:10;16.58;;;5.00;;
16870;SDS011;8552;48.120;-1.456;2024-02-14T05:01:36;9.20;;;4.82;;
16870;SDS011;8552;48.120;-1.456;2024-02-14T05:04:04;14.45;;;6.05;;
16870;SDS011;8552;48.120;-1.456;2024-02-14T05:06:30;16.02;;;5.07;;
16870;SDS011;8552;48.120;-1.456;2024-02-14T05:08:56;21.13;;;5.75;;
16870;SDS011;8552;48.120;-1.456;2024-02-14T05:11:22;14.25;;;5.93;;
16870;SDS011;8552;48.120;-1.456;2024-02-14T05:13:48;15.00;;;5.50;;
16870;SDS011;8552;48.120;-1.456;2024-02-14T05:16:17;18.13;;;5.80;;
16870;SDS011;8552;48.120;-1.456;2024-02-14T05:18:43;16.02;;;5.13;;
16870;SDS011;8552;48.120;-1.456;2024-02-14T05:21:10;13.13;;;5.53;;
16870;SDS011;8552;48.120;-1.456;2024-02-14T05:23:36;16.40;;;5.28;;
16870;SDS011;8552;48.120;-1.456;2024-02-14T05:26:02;15.80;;;4.88;;
16870;SDS011;8552;48.120;-1.456;2024-02-14T05:28:29;16.17;;;5.40;;
16870;SDS011;8552;48.120;-1.456;2024-02-14T05:30:56;14.60;;;6.22;;
16870;SDS011;8552;48.120;-1.456;2024-02-14T05:33:22;16.70;;;5.93;;
16870;SDS011;8552;48.120;-1.456;2024-02-14T05:35:49;13.38;;;5.38;;
16870;SDS011;8552;48.120;-1.456;2024-02-14T05:38:15;20.63;;;6.63;;
16870;SDS011;8552;48.120;-1.456;2024-02-14T05:40:41;13.93;;;4.80;;
16870;SDS011;8552;48.120;-1.456;2024-02-14T05:43:11;17.83;;;5.32;;
16870;SDS011;8552;48.120;-1.456;2024-02-14T05:45:38;17.25;;;6.47;;
16870;SDS011;8552;48.120;-1.456;2024-02-14T05:48:04;10.70;;;4.35;;
16870;SDS011;8552;48.120;-1.456;2024-02-14T05:50:30;13.40;;;4.07;;
16870;SDS011;8552;48.120;-1.456;2024-02-14T05:52:56;19.70;;;4.90;;
16870;SDS011;8552;48.120;-1.456;2024-02-14T05:55:22;14.93;;;4.30;;
16870;SDS011;8552;48.120;-1.456;2024-02-14T05:57:49;15.35;;;5.03;;
16870;SDS011;8552;48.120;-1.456;2024-02-14T06:00:17;13.80;;;4.97;;
16870;SDS011;8552;48.120;-1.456;2024-02-14T06:02:44;17.50;;;5.15;;
16870;SDS011;8552;48.120;-1.456;2024-02-14T06:05:10;12.32;;;5.15;;
16870;SDS011;8552;48.120;-1.456;2024-02-14T06:07:36;20.20;;;4.82;;
16870;SDS011;8552;48.120;-1.456;2024-02-14T06:10:02;15.40;;;4.85;;
16870;SDS011;8552;48.120;-1.456;2024-02-14T06:12:28;13.32;;;4.95;;
16870;SDS011;8552;48.120;-1.456;2024-02-14T06:14:57;11.57;;;5.15;;
16870;SDS011;8552;48.120;-1.456;2024-02-14T06:17:23;20.05;;;5.95;;
16870;SDS011;8552;48.120;-1.456;2024-02-14T06:19:51;14.50;;;5.57;;
16870;SDS011;8552;48.120;-1.456;2024-02-14T06:22:17;15.30;;;5.38;;
16870;SDS011;8552;48.120;-1.456;2024-02-14T06:24:43;17.35;;;5.60;;
16870;SDS011;8552;48.120;-1.456;2024-02-14T06:27:09;19.67;;;4.80;;
16870;SDS011;8552;48.120;-1.456;2024-02-14T06:29:35;21.45;;;5.20;;
16870;SDS011;8552;48.120;-1.456;2024-02-14T06:32:01;28.13;;;5.90;;
16870;SDS011;8552;48.120;-1.456;2024-02-14T06:34:27;15.55;;;4.82;;
16870;SDS011;8552;48.120;-1.456;2024-02-14T06:36:54;25.20;;;5.75;;
16870;SDS011;8552;48.120;-1.456;2024-02-14T06:39:20;16.70;;;5.97;;
16870;SDS011;8552;48.120;-1.456;2024-02-14T06:41:46;13.85;;;5.65;;
16870;SDS011;8552;48.120;-1.456;2024-02-14T06:44:13;14.00;;;5.30;;
16870;SDS011;8552;48.120;-1.456;2024-02-14T06:46:39;19.75;;;5.88;;
16870;SDS011;8552;48.120;-1.456;2024-02-14T06:49:06;21.58;;;5.78;;
16870;SDS011;8552;48.120;-1.456;2024-02-14T06:51:32;15.30;;;6.30;;
16870;SDS011;8552;48.120;-1.456;2024-02-14T06:53:58;18.42;;;6.40;;
16870;SDS011;8552;48.120;-1.456;2024-02-14T06:56:25;26.33;;;7.63;;
16870;SDS011;8552;48.120;-1.456;2024-02-14T06:58:51;19.33;;;5.35;;
16870;SDS011;8552;48.120;-1.456;2024-02-14T07:01:19;18.00;;;5.32;;
16870;SDS011;8552;48.120;-1.456;2024-02-14T07:03:49;21.02;;;4.78;;
16870;SDS011;8552;48.120;-1.456;2024-02-14T07:06:15;19.25;;;5.07;;
16870;SDS011;8552;48.120;-1.456;2024-02-14T07:08:42;23.42;;;5.57;;
16870;SDS011;8552;48.120;-1.456;2024-02-14T07:11:08;16.80;;;5.80;;
16870;SDS011;8552;48.120;-1.456;2024-02-14T07:13:34;19.20;;;5.32;;
16870;SDS011;8552;48.120;-1.456;2024-02-14T07:16:00;21.88;;;6.20;;
16870;SDS011;8552;48.120;-1.456;2024-02-14T07:18:26;24.67;;;6.38;;
16870;SDS011;8552;48.120;-1.456;2024-02-14T07:20:52;20.42;;;7.20;;
16870;SDS011;8552;48.120;-1.456;2024-02-14T07:23:19;26.63;;;6.78;;
16870;SDS011;8552;48.120;-1.456;2024-02-14T07:25:45;20.92;;;6.10;;
16870;SDS011;8552;48.120;-1.456;2024-02-14T07:28:11;22.10;;;6.43;;
16870;SDS011;8552;48.120;-1.456;2024-02-14T07:30:37;15.00;;;6.47;;
16870;SDS011;8552;48.120;-1.456;2024-02-14T07:33:03;21.17;;;7.05;;
16870;SDS011;8552;48.120;-1.456;2024-02-14T07:35:29;19.30;;;6.13;;
16870;SDS011;8552;48.120;-1.456;2024-02-14T07:37:55;16.77;;;6.45;;
16870;SDS011;8552;48.120;-1.456;2024-02-14T07:40:22;17.15;;;7.10;;
16870;SDS011;8552;48.120;-1.456;2024-02-14T07:42:48;17.70;;;6.30;;
16870;SDS011;8552;48.120;-1.456;2024-02-14T07:45:14;17.38;;;5.20;;
16870;SDS011;8552;48.120;-1.456;2024-02-14T07:47:41;23.98;;;9.35;;
16870;SDS011;8552;48.120;-1.456;2024-02-14T07:50:07;18.70;;;6.35;;
16870;SDS011;8552;48.120;-1.456;2024-02-14T07:52:33;20.05;;;6.13;;
16870;SDS011;8552;48.120;-1.456;2024-02-14T07:54:59;27.00;;;5.88;;
16870;SDS011;8552;48.120;-1.456;2024-02-14T07:57:25;21.77;;;5.43;;
16870;SDS011;8552;48.120;-1.456;2024-02-14T07:59:52;12.02;;;5.75;;
16870;SDS011;8552;48.120;-1.456;2024-02-14T08:02:19;18.00;;;5.60;;
16870;SDS011;8552;48.120;-1.456;2024-02-14T08:04:45;19.38;;;6.30;;
16870;SDS011;8552;48.120;-1.456;2024-02-14T08:07:11;25.50;;;8.10;;
16870;SDS011;8552;48.120;-1.456;2024-02-14T08:09:37;14.15;;;5.43;;
16870;SDS011;8552;48.120;-1.456;2024-02-14T08:12:04;21.15;;;6.32;;
16870;SDS011;8552;48.120;-1.456;2024-02-14T08:14:31;19.77;;;5.65;;
16870;SDS011;8552;48.120;-1.456;2024-02-14T08:16:57;19.85;;;6.85;;
16870;SDS011;8552;48.120;-1.456;2024-02-14T08:19:24;18.27;;;5.43;;
16870;SDS011;8552;48.120;-1.456;2024-02-14T08:21:50;16.33;;;5.45;;
16870;SDS011;8552;48.120;-1.456;2024-02-14T08:24:16;11.80;;;5.40;;
16870;SDS011;8552;48.120;-1.456;2024-02-14T08:26:42;16.30;;;5.90;;
16870;SDS011;8552;48.120;-1.456;2024-02-14T08:29:08;16.77;;;5.75;;
16870;SDS011;8552;48.120;-1.456;2024-02-14T08:31:36;18.58;;;5.57;;
16870;SDS011;8552;48.120;-1.456;2024-02-14T08:34:03;21.05;;;5.70;;
16870;SDS011;8552;48.120;-1.456;2024-02-14T08:36:29;17.50;;;5.85;;
16870;SDS011;8552;48.120;-1.456;2024-02-14T08:38:55;12.85;;;5.82;;
16870;SDS011;8552;48.120;-1.456;2024-02-14T08:41:21;18.50;;;5.25;;
16870;SDS011;8552;48.120;-1.456;2024-02-14T08:43:48;19.00;;;5.53;;
16870;SDS011;8552;48.120;-1.456;2024-02-14T08:46:14;13.60;;;5.00;;
16870;SDS011;8552;48.120;-1.456;2024-02-14T08:48:43;18.52;;;6.38;;
16870;SDS011;8552;48.120;-1.456;2024-02-14T08:51:13;20.55;;;5.38;;
16870;SDS011;8552;48.120;-1.456;2024-02-14T08:53:41;19.83;;;5.47;;
16870;SDS011;8552;48.120;-1.456;2024-02-14T08:56:08;18.42;;;5.22;;
16870;SDS011;8552;48.120;-1.456;2024-02-14T08:58:34;19.65;;;5.35;;
16870;SDS011;8552;48.120;-1.456;2024-02-14T09:01:00;18.33;;;4.80;;
16870;SDS011;8552;48.120;-1.456;2024-02-14T09:03:26;19.27;;;5.53;;
16870;SDS011;8552;48.120;-1.456;2024-02-14T09:05:52;9.10;;;4.18;;
16870;SDS011;8552;48.120;-1.456;2024-02-14T09:08:19;11.68;;;4.93;;
16870;SDS011;8552;48.120;-1.456;2024-02-14T09:10:45;17.10;;;4.57;;
16870;SDS011;8552;48.120;-1.456;2024-02-14T09:13:11;21.80;;;6.35;;
16870;SDS011;8552;48.120;-1.456;2024-02-14T09:15:38;19.48;;;5.03;;
16870;SDS011;8552;48.120;-1.456;2024-02-14T09:18:04;15.75;;;4.50;;
16870;SDS011;8552;48.120;-1.456;2024-02-14T09:20:30;17.73;;;4.88;;
16870;SDS011;8552;48.120;-1.456;2024-02-14T09:22:56;15.95;;;4.25;;
16870;SDS011;8552;48.120;-1.456;2024-02-14T09:25:23;19.38;;;4.32;;
16870;SDS011;8552;48.120;-1.456;2024-02-14T09:27:50;12.88;;;3.50;;
16870;SDS011;8552;48.120;-1.456;2024-02-14T09:30:16;12.18;;;3.30;;
16870;SDS011;8552;48.120;-1.456;2024-02-14T09:32:45;16.48;;;4.47;;
16870;SDS011;8552;48.120;-1.456;2024-02-14T09:35:12;16.17;;;4.15;;
16870;SDS011;8552;48.120;-1.456;2024-02-14T09:37:39;13.18;;;3.95;;
16870;SDS011;8552;48.120;-1.456;2024-02-14T09:40:06;14.27;;;4.00;;
16870;SDS011;8552;48.120;-1.456;2024-02-14T09:42:40;16.35;;;3.53;;
16870;SDS011;8552;48.120;-1.456;2024-02-14T09:45:10;14.02;;;4.35;;
16870;SDS011;8552;48.120;-1.456;2024-02-14T09:47:36;7.55;;;3.30;;
16870;SDS011;8552;48.120;-1.456;2024-02-14T09:50:03;15.60;;;4.63;;
16870;SDS011;8552;48.120;-1.456;2024-02-14T09:52:31;12.23;;;3.40;;
16870;SDS011;8552;48.120;-1.456;2024-02-14T09:54:58;14.85;;;3.67;;
16870;SDS011;8552;48.120;-1.456;2024-02-14T09:57:24;11.90;;;3.53;;
16870;SDS011;8552;48.120;-1.456;2024-02-14T09:59:51;19.05;;;4.75;;
16870;SDS011;8552;48.120;-1.456;2024-02-14T10:02:17;15.05;;;3.63;;
16870;SDS011;8552;48.120;-1.456;2024-02-14T10:04:43;15.05;;;4.47;;
16870;SDS011;8552;48.120;-1.456;2024-02-14T10:07:09;17.65;;;4.13;;
16870;SDS011;8552;48.120;-1.456;2024-02-14T10:09:41;13.70;;;3.78;;
16870;SDS011;8552;48.120;-1.456;2024-02-14T10:12:08;11.45;;;3.20;;
16870;SDS011;8552;48.120;-1.456;2024-02-14T10:14:34;11.05;;;3.03;;
16870;SDS011;8552;48.120;-1.456;2024-02-14T10:17:01;13.65;;;4.07;;
16870;SDS011;8552;48.120;-1.456;2024-02-14T10:19:29;14.63;;;3.60;;
16870;SDS011;8552;48.120;-1.456;2024-02-14T10:21:57;17.75;;;3.95;;
16870;SDS011;8552;48.120;-1.456;2024-02-14T10:24:27;11.60;;;3.90;;
16870;SDS011;8552;48.120;-1.456;2024-02-14T10:26:53;16.10;;;4.13;;
16870;SDS011;8552;48.120;-1.456;2024-02-14T10:29:22;13.68;;;3.17;;
16870;SDS011;8552;48.120;-1.456;2024-02-14T10:31:49;13.88;;;3.22;;
16870;SDS011;8552;48.120;-1.456;2024-02-14T10:34:15;14.48;;;4.32;;
16870;SDS011;8552;48.120;-1.456;2024-02-14T10:36:42;13.35;;;3.63;;
16870;SDS011;8552;48.120;-1.456;2024-02-14T10:39:10;14.13;;;4.85;;
16870;SDS011;8552;48.120;-1.456;2024-02-14T10:41:37;14.32;;;4.28;;
16870;SDS011;8552;48.120;-1.456;2024-02-14T10:44:03;17.40;;;4.88;;
16870;SDS011;8552;48.120;-1.456;2024-02-14T10:46:31;13.70;;;3.83;;
16870;SDS011;8552;48.120;-1.456;2024-02-14T10:49:02;20.83;;;4.88;;
16870;SDS011;8552;48.120;-1.456;2024-02-14T10:51:30;12.77;;;3.20;;
16870;SDS011;8552;48.120;-1.456;2024-02-14T10:53:56;16.75;;;3.58;;
16870;SDS011;8552;48.120;-1.456;2024-02-14T10:56:26;16.63;;;4.30;;
16870;SDS011;8552;48.120;-1.456;2024-02-14T10:58:58;10.73;;;3.92;;
16870;SDS011;8552;48.120;-1.456;2024-02-14T11:01:26;15.70;;;4.30;;
16870;SDS011;8552;48.120;-1.456;2024-02-14T11:03:57;11.85;;;3.53;;
16870;SDS011;8552;48.120;-1.456;2024-02-14T11:06:24;17.15;;;4.50;;
16870;SDS011;8552;48.120;-1.456;2024-02-14T11:08:58;16.55;;;3.35;;
16870;SDS011;8552;48.120;-1.456;2024-02-14T11:11:27;11.15;;;3.28;;
16870;SDS011;8552;48.120;-1.456;2024-02-14T11:13:54;27.67;;;5.35;;
16870;SDS011;8552;48.120;-1.456;2024-02-14T11:16:27;13.82;;;3.50;;
16870;SDS011;8552;48.120;-1.456;2024-02-14T11:18:54;10.52;;;3.17;;
16870;SDS011;8552;48.120;-1.456;2024-02-14T11:21:45;13.30;;;2.67;;
16870;SDS011;8552;48.120;-1.456;2024-02-14T11:24:13;12.88;;;3.45;;
16870;SDS011;8552;48.120;-1.456;2024-02-14T11:26:49;14.00;;;2.80;;
16870;SDS011;8552;48.120;-1.456;2024-02-14T11:29:19;15.70;;;2.88;;
16870;SDS011;8552;48.120;-1.456;2024-02-14T11:31:45;8.40;;;2.80;;
16870;SDS011;8552;48.120;-1.456;2024-02-14T11:34:13;11.70;;;3.20;;
16870;SDS011;8552;48.120;-1.456;2024-02-14T11:36:41;11.73;;;3.38;;
16870;SDS011;8552;48.120;-1.456;2024-02-14T11:39:07;11.05;;;3.03;;
16870;SDS011;8552;48.120;-1.456;2024-02-14T11:41:33;14.10;;;3.40;;
16870;SDS011;8552;48.120;-1.456;2024-02-14T11:44:05;11.73;;;2.92;;
16870;SDS011;8552;48.120;-1.456;2024-02-14T11:46:31;12.23;;;3.13;;
16870;SDS011;8552;48.120;-1.456;2024-02-14T11:49:01;12.73;;;2.75;;
16870;SDS011;8552;48.120;-1.456;2024-02-14T11:51:31;8.10;;;2.83;;
16870;SDS011;8552;48.120;-1.456;2024-02-14T11:54:00;12.38;;;2.53;;
16870;SDS011;8552;48.120;-1.456;2024-02-14T11:56:31;11.63;;;2.78;;
16870;SDS011;8552;48.120;-1.456;2024-02-14T11:59:07;9.93;;;2.22;;
16870;SDS011;8552;48.120;-1.456;2024-02-14T12:01:34;8.50;;;2.03;;
16870;SDS011;8552;48.120;-1.456;2024-02-14T12:04:02;7.75;;;2.40;;
16870;SDS011;8552;48.120;-1.456;2024-02-14T12:06:33;15.35;;;3.03;;
16870;SDS011;8552;48.120;-1.456;2024-02-14T12:09:03;6.10;;;2.40;;
16870;SDS011;8552;48.120;-1.456;2024-02-14T12:11:37;9.80;;;2.70;;
16870;SDS011;8552;48.120;-1.456;2024-02-14T12:14:07;14.30;;;3.22;;
16870;SDS011;8552;48.120;-1.456;2024-02-14T12:16:37;8.45;;;2.20;;
16870;SDS011;8552;48.120;-1.456;2024-02-14T12:21:36;8.57;;;2.50;;
16870;SDS011;8552;48.120;-1.456;2024-02-14T12:24:07;12.85;;;3.10;;
16870;SDS011;8552;48.120;-1.456;2024-02-14T12:26:35;9.55;;;2.38;;
16870;SDS011;8552;48.120;-1.456;2024-02-14T12:29:04;10.27;;;2.00;;
16870;SDS011;8552;48.120;-1.456;2024-02-14T12:31:31;7.85;;;2.00;;
16870;SDS011;8552;48.120;-1.456;2024-02-14T12:33:58;12.75;;;2.65;;
16870;SDS011;8552;48.120;-1.456;2024-02-14T12:36:33;6.35;;;2.30;;
16870;SDS011;8552;48.120;-1.456;2024-02-14T12:39:00;6.07;;;2.08;;
16870;SDS011;8552;48.120;-1.456;2024-02-14T12:41:27;7.72;;;1.92;;
16870;SDS011;8552;48.120;-1.456;2024-02-14T12:43:55;9.00;;;1.90;;
16870;SDS011;8552;48.120;-1.456;2024-02-14T12:46:22;11.18;;;2.15;;
16870;SDS011;8552;48.120;-1.456;2024-02-14T12:48:48;9.32;;;2.17;;
16870;SDS011;8552;48.120;-1.456;2024-02-14T12:51:16;5.18;;;1.83;;
16870;SDS011;8552;48.120;-1.456;2024-02-14T12:53:42;7.00;;;1.75;;
16870;SDS011;8552;48.120;-1.456;2024-02-14T12:56:08;10.50;;;2.10;;
16870;SDS011;8552;48.120;-1.456;2024-02-14T12:58:33;8.13;;;2.55;;
16870;SDS011;8552;48.120;-1.456;2024-02-14T13:01:00;8.80;;;2.13;;
16870;SDS011;8552;48.120;-1.456;2024-02-14T13:03:26;7.03;;;2.17;;
16870;SDS011;8552;48.120;-1.456;2024-02-14T13:05:53;9.65;;;1.83;;
16870;SDS011;8552;48.120;-1.456;2024-02-14T13:08:20;5.22;;;2.00;;
16870;SDS011;8552;48.120;-1.456;2024-02-14T13:10:45;6.43;;;1.90;;
16870;SDS011;8552;48.120;-1.456;2024-02-14T13:13:12;8.45;;;1.80;;
16870;SDS011;8552;48.120;-1.456;2024-02-14T13:15:39;7.18;;;1.92;;
16870;SDS011;8552;48.120;-1.456;2024-02-14T13:18:05;6.60;;;1.85;;
16870;SDS011;8552;48.120;-1.456;2024-02-14T13:20:34;8.05;;;1.70;;
16870;SDS011;8552;48.120;-1.456;2024-02-14T13:23:00;10.48;;;1.60;;
16870;SDS011;8552;48.120;-1.456;2024-02-14T13:25:27;8.60;;;2.03;;
16870;SDS011;8552;48.120;-1.456;2024-02-14T13:27:53;7.72;;;2.53;;
16870;SDS011;8552;48.120;-1.456;2024-02-14T13:30:20;7.10;;;2.10;;
16870;SDS011;8552;48.120;-1.456;2024-02-14T13:32:46;12.35;;;2.17;;
16870;SDS011;8552;48.120;-1.456;2024-02-14T13:35:12;9.13;;;2.40;;
16870;SDS011;8552;48.120;-1.456;2024-02-14T13:37:38;8.10;;;1.70;;
16870;SDS011;8552;48.120;-1.456;2024-02-14T13:40:04;6.05;;;1.88;;
16870;SDS011;8552;48.120;-1.456;2024-02-14T13:42:35;5.10;;;1.70;;
16870;SDS011;8552;48.120;-1.456;2024-02-14T13:45:03;9.27;;;1.73;;
16870;SDS011;8552;48.120;-1.456;2024-02-14T13:47:30;7.93;;;1.65;;
16870;SDS011;8552;48.120;-1.456;2024-02-14T13:49:56;12.73;;;1.88;;
16870;SDS011;8552;48.120;-1.456;2024-02-14T13:52:22;13.02;;;2.17;;
16870;SDS011;8552;48.120;-1.456;2024-02-14T13:54:47;10.23;;;2.28;;
16870;SDS011;8552;48.120;-1.456;2024-02-14T13:57:13;12.73;;;2.88;;
16870;SDS011;8552;48.120;-1.456;2024-02-14T13:59:39;8.48;;;1.92;;
16870;SDS011;8552;48.120;-1.456;2024-02-14T14:02:04;7.50;;;1.52;;
16870;SDS011;8552;48.120;-1.456;2024-02-14T14:04:30;6.03;;;1.63;;
16870;SDS011;8552;48.120;-1.456;2024-02-14T14:07:01;6.57;;;1.67;;
16870;SDS011;8552;48.120;-1.456;2024-02-14T14:09:30;4.78;;;1.60;;
16870;SDS011;8552;48.120;-1.456;2024-02-14T14:11:57;9.43;;;2.10;;
16870;SDS011;8552;48.120;-1.456;2024-02-14T14:14:23;6.18;;;1.35;;
16870;SDS011;8552;48.120;-1.456;2024-02-14T14:16:52;7.90;;;2.10;;
16870;SDS011;8552;48.120;-1.456;2024-02-14T14:19:18;5.93;;;2.15;;
16870;SDS011;8552;48.120;-1.456;2024-02-14T14:21:43;7.20;;;1.70;;
16870;SDS011;8552;48.120;-1.456;2024-02-14T14:24:09;2.72;;;1.30;;
16870;SDS011;8552;48.120;-1.456;2024-02-14T14:26:35;7.63;;;1.52;;
16870;SDS011;8552;48.120;-1.456;2024-02-14T14:29:01;6.22;;;1.70;;
16870;SDS011;8552;48.120;-1.456;2024-02-14T14:31:27;6.70;;;2.38;;
16870;SDS011;8552;48.120;-1.456;2024-02-14T14:33:52;6.22;;;1.70;;
16870;SDS011;8552;48.120;-1.456;2024-02-14T14:36:19;8.48;;;1.65;;
16870;SDS011;8552;48.120;-1.456;2024-02-14T14:38:44;6.07;;;1.83;;